Time;durP1;ratioP1;P1;durP2;ratioP2;P2;SDS_P1;SDS_P2;PMS_P1;PMS_P2;Temp;Humidity;BMP_temperature;BMP_pressure;BME280_temperature;BME280_humidity;BME280_pressure;Samples;Min_cycle;Max_cycle;Signal;HPM_P1;HPM_P2
2022/03/08 00:03:03;;;;;;;9.80;5.60;;;;;;;-3.21;100.00;97353.53;10530699;28;20237;-59
2022/03/08 00:08:04;;;;;;;12.10;6.00;;;;;;;-3.36;100.00;97345.50;10532619;28;20225;-60
2022/03/08 00:13:04;;;;;;;12.03;6.67;;;;;;;-3.31;100.00;97346.16;10536521;28;20241;-59
2022/03/08 00:18:05;;;;;;;15.07;6.87;;;;;;;-3.43;100.00;97346.59;10536619;28;20185;-60
2022/03/08 00:23:05;;;;;;;14.67;6.50;;;;;;;-3.41;100.00;97345.66;10536106;28;20213;-59
2022/03/08 00:28:05;;;;;;;12.83;7.03;;;;;;;-3.40;100.00;97346.47;10536313;28;20229;-57
2022/03/08 00:33:06;;;;;;;10.97;5.50;;;;;;;-3.33;100.00;97339.44;10534654;28;20300;-54
2022/03/08 00:38:07;;;;;;;14.57;6.10;;;;;;;-3.38;100.00;97336.19;10536120;28;20186;-57
2022/03/08 00:43:08;;;;;;;13.03;5.70;;;;;;;-3.42;100.00;97322.66;10534209;28;20693;-60
2022/03/08 00:48:08;;;;;;;11.33;6.07;;;;;;;-3.39;100.00;97325.09;10534389;28;20657;-60
2022/03/08 00:53:09;;;;;;;13.33;6.07;;;;;;;-3.41;100.00;97320.03;10534162;28;20214;-59
2022/03/08 00:58:09;;;;;;;11.97;5.30;;;;;;;-3.54;100.00;97317.97;10534271;28;20201;-59
2022/03/08 01:03:09;;;;;;;13.33;5.40;;;;;;;-3.62;100.00;97310.56;10535157;28;20217;-59
2022/03/08 01:08:11;;;;;;;9.63;6.07;;;;;;;-3.55;100.00;97309.47;10533697;28;20221;-60
2022/03/08 01:13:11;;;;;;;9.40;5.40;;;;;;;-3.46;100.00;97303.16;10534828;28;20246;-59
2022/03/08 01:18:12;;;;;;;9.50;5.73;;;;;;;-3.52;100.00;97301.69;10479220;22;20347;-63
2022/03/08 01:23:12;;;;;;;10.57;5.70;;;;;;;-3.53;100.00;97307.69;10451628;28;20252;-63
2022/03/08 01:28:12;;;;;;;8.10;4.53;;;;;;;-3.53;100.00;97306.84;10490066;28;20305;-63
2022/03/08 01:33:13;;;;;;;12.97;5.67;;;;;;;-3.50;100.00;97302.44;10501852;28;20224;-61
2022/03/08 01:38:16;;;;;;;8.77;5.63;;;;;;;-3.60;100.00;97296.84;10483368;28;20215;-63
2022/03/08 01:43:17;;;;;;;9.07;4.73;;;;;;;-3.64;100.00;97285.03;10501267;28;20219;-61
2022/03/08 01:48:17;;;;;;;10.10;4.70;;;;;;;-3.70;100.00;97284.41;10500793;28;20269;-61
2022/03/08 01:53:17;;;;;;;9.63;5.37;;;;;;;-3.74;100.00;97275.16;10482955;28;20203;-62
2022/03/08 01:58:18;;;;;;;8.37;5.10;;;;;;;-3.78;100.00;97266.75;10482838;28;20210;-64
2022/03/08 02:03:18;;;;;;;9.37;5.57;;;;;;;-3.83;100.00;97272.03;10499567;28;20201;-60
2022/03/08 02:08:19;;;;;;;8.27;4.47;;;;;;;-3.84;100.00;97275.50;10500188;28;20226;-62
2022/03/08 02:13:19;;;;;;;10.03;5.20;;;;;;;-3.85;100.00;97270.41;10499753;28;20186;-60
2022/03/08 02:18:20;;;;;;;11.33;5.70;;;;;;;-3.88;100.00;97268.78;10499636;28;20230;-60
2022/03/08 02:23:21;;;;;;;13.13;5.60;;;;;;;-3.90;100.00;97252.66;10499284;28;20255;-61
2022/03/08 02:28:22;;;;;;;13.63;5.90;;;;;;;-3.92;100.00;97254.44;10499018;28;20226;-60
2022/03/08 02:33:22;;;;;;;9.20;5.00;;;;;;;-3.96;100.00;97246.03;10481646;28;20742;-61
2022/03/08 02:38:23;;;;;;;10.67;6.00;;;;;;;-4.00;100.00;97241.06;10498457;28;20263;-62
2022/03/08 02:43:23;;;;;;;10.73;5.77;;;;;;;-4.04;100.00;97254.84;10499058;28;20285;-59
2022/03/08 02:48:29;;;;;;;15.00;6.60;;;;;;;-4.05;100.00;97253.19;10498598;28;20279;-63
2022/03/08 02:53:30;;;;;;;8.03;5.23;;;;;;;-4.04;100.00;97259.97;10498434;28;20270;-60
2022/03/08 02:58:31;;;;;;;8.43;5.43;;;;;;;-4.09;100.00;97261.88;10498485;28;20300;-58
2022/03/08 03:03:31;;;;;;;11.80;5.70;;;;;;;-4.17;100.00;97267.25;10497799;28;20279;-59
2022/03/08 03:08:31;;;;;;;11.73;5.90;;;;;;;-4.26;100.00;97263.25;10498183;28;20264;-61
2022/03/08 03:13:32;;;;;;;9.17;5.87;;;;;;;-4.31;100.00;97262.59;10497666;28;20203;-64
2022/03/08 03:18:32;;;;;;;9.13;4.70;;;;;;;-4.35;100.00;97271.25;10497251;28;20237;-63
2022/03/08 03:23:32;;;;;;;10.47;5.13;;;;;;;-4.31;100.00;97273.66;10497339;28;20186;-64
2022/03/08 03:28:33;;;;;;;11.40;5.47;;;;;;;-4.27;100.00;97269.28;10496729;28;20308;-64
2022/03/08 03:33:33;;;;;;;7.00;3.90;;;;;;;-4.27;100.00;97282.06;10497260;28;20191;-61
2022/03/08 03:38:33;;;;;;;8.70;5.17;;;;;;;-4.36;100.00;97282.38;10496713;28;20210;-62
2022/03/08 03:43:34;;;;;;;12.07;5.87;;;;;;;-4.42;100.00;97285.16;10496632;28;20185;-62
2022/03/08 03:48:34;;;;;;;10.93;5.20;;;;;;;-4.54;100.00;97292.31;10495526;28;20306;-62
2022/03/08 03:53:34;;;;;;;13.17;6.03;;;;;;;-4.57;100.00;97291.56;10495761;28;20224;-61
2022/03/08 03:58:35;;;;;;;10.40;6.10;;;;;;;-4.56;100.00;97294.09;10495950;28;20271;-60
2022/03/08 04:03:35;;;;;;;9.67;5.30;;;;;;;-4.64;100.00;97287.53;10495047;28;20197;-61
2022/03/08 04:08:36;;;;;;;6.77;4.57;;;;;;;-4.64;100.00;97295.19;10495305;28;20318;-59
2022/03/08 04:13:36;;;;;;;7.37;5.07;;;;;;;-4.67;100.00;97298.69;10495241;28;20193;-59
2022/03/08 04:18:36;;;;;;;9.50;6.17;;;;;;;-4.77;100.00;97293.03;10494476;28;20234;-58
2022/03/08 04:23:37;;;;;;;12.83;6.83;;;;;;;-4.84;100.00;97283.88;10494798;28;20187;-62
2022/03/08 04:28:37;;;;;;;14.80;6.00;;;;;;;-4.85;100.00;97292.44;10494559;28;20227;-58
2022/03/08 04:33:38;;;;;;;11.47;7.07;;;;;;;-4.90;100.00;97287.47;10494417;28;20212;-62
2022/03/08 04:38:38;;;;;;;10.60;5.80;;;;;;;-4.87;100.00;97289.09;10494449;28;20224;-63
2022/03/08 04:43:39;;;;;;;14.50;7.13;;;;;;;-4.97;100.00;97285.16;10494259;28;20188;-61
2022/03/08 04:48:39;;;;;;;11.20;5.93;;;;;;;-5.00;100.00;97283.53;10494148;28;20262;-62
2022/03/08 04:53:40;;;;;;;10.03;5.80;;;;;;;-5.03;100.00;97279.34;10494056;28;20191;-64
2022/03/08 04:58:40;;;;;;;8.57;5.77;;;;;;;-5.06;100.00;97293.94;10493721;28;20293;-63
2022/03/08 05:03:40;;;;;;;12.83;6.27;;;;;;;-5.13;100.00;97274.56;10494175;28;20217;-61
2022/03/08 05:08:41;;;;;;;15.53;7.73;;;;;;;-5.26;100.00;97281.75;10493500;28;20298;-62
2022/03/08 05:13:41;;;;;;;23.13;11.93;;;;;;;-5.32;100.00;97285.31;10493692;28;20185;-64
2022/03/08 05:18:41;;;;;;;14.90;7.90;;;;;;;-5.33;100.00;97273.41;10492853;28;20236;-63
2022/03/08 05:23:42;;;;;;;15.17;7.93;;;;;;;-5.32;100.00;97282.75;10492975;28;20192;-63
2022/03/08 05:28:42;;;;;;;11.90;6.80;;;;;;;-5.33;100.00;97291.28;10493411;28;20237;-62
2022/03/08 05:33:43;;;;;;;14.53;8.03;;;;;;;-5.38;100.00;97291.44;10493126;28;20236;-62
2022/03/08 05:38:43;;;;;;;12.33;7.47;;;;;;;-5.41;100.00;97294.06;10493307;28;20215;-62
2022/03/08 05:43:44;;;;;;;10.93;6.60;;;;;;;-5.47;100.00;97299.34;10492959;28;20200;-62
2022/03/08 05:48:44;;;;;;;15.97;7.90;;;;;;;-5.48;100.00;97307.03;10492975;28;20221;-61
2022/03/08 05:53:44;;;;;;;13.97;7.90;;;;;;;-5.52;100.00;97313.13;10493036;28;20202;-65
2022/03/08 05:58:45;;;;;;;18.07;9.27;;;;;;;-5.56;100.00;97320.03;10492654;28;20300;-63
2022/03/08 06:03:45;;;;;;;12.20;7.27;;;;;;;-5.50;100.00;97319.03;10492979;28;20191;-63
2022/03/08 06:08:48;;;;;;;14.13;6.40;;;;;;;-5.52;100.00;97311.41;10492310;28;20219;-64
2022/03/08 06:13:48;;;;;;;12.57;6.77;;;;;;;-5.49;100.00;97320.72;10498314;28;20265;-63
2022/03/08 06:18:48;;;;;;;14.43;8.03;;;;;;;-5.46;100.00;97323.19;10499241;28;20986;-65
2022/03/08 06:23:49;;;;;;;13.70;8.33;;;;;;;-5.41;100.00;97329.81;10499593;28;20205;-63
2022/03/08 06:28:49;;;;;;;10.17;6.00;;;;;;;-5.36;100.00;97329.69;10499591;28;20228;-62
2022/03/08 06:33:49;;;;;;;13.67;6.43;;;;;;;-5.32;100.00;97328.72;10482843;28;20188;-63
2022/03/08 06:38:50;;;;;;;12.07;5.93;;;;;;;-5.11;100.00;97332.38;10467430;28;20209;-58
2022/03/08 06:43:50;;;;;;;20.57;8.63;;;;;;;-4.91;100.00;97331.78;10457340;28;20204;-62
2022/03/08 06:48:50;;;;;;;14.50;7.03;;;;;;;-4.32;100.00;97348.72;10457310;28;20239;-61
2022/03/08 06:53:51;;;;;;;12.60;7.07;;;;;;;-3.87;100.00;97338.75;10457139;28;20273;-63
2022/03/08 06:58:51;;;;;;;12.20;6.57;;;;;;;-3.56;100.00;97333.41;10456762;28;20216;-66
2022/03/08 07:03:51;;;;;;;18.80;8.40;;;;;;;-3.41;100.00;97339.72;10456748;28;20199;-61
2022/03/08 07:08:53;;;;;;;14.10;6.87;;;;;;;-3.03;100.00;97341.75;10456430;28;20303;-64
2022/03/08 07:13:54;;;;;;;8.73;5.00;;;;;;;-2.33;100.00;97343.31;10456361;28;20200;-63
2022/03/08 07:18:54;;;;;;;12.53;6.30;;;;;;;-2.16;100.00;97345.22;10492411;22;20247;-60
2022/03/08 07:23:54;;;;;;;11.33;6.53;;;;;;;-1.46;100.00;97333.72;10496504;28;20244;-60
2022/03/08 07:28:55;;;;;;;12.70;6.20;;;;;;;-1.60;100.00;97333.47;10497042;28;20280;-57
2022/03/08 07:33:55;;;;;;;9.57;5.63;;;;;;;-0.51;100.00;97332.06;10496917;28;20253;-59
2022/03/08 07:38:56;;;;;;;13.17;6.43;;;;;;;-0.36;97.28;97296.13;10496318;28;20211;-58
2022/03/08 07:43:56;;;;;;;12.90;5.50;;;;;;;0.83;91.33;97266.09;10495224;28;20202;-58
2022/03/08 07:48:57;;;;;;;15.37;6.97;;;;;;;0.81;86.51;97242.09;10490468;28;20242;-60
2022/03/08 07:53:59;;;;;;;8.97;5.07;;;;;;;1.77;84.01;97243.63;10481250;28;20616;-61
2022/03/08 07:58:59;;;;;;;6.33;4.67;;;;;;;2.44;80.46;97224.22;10492181;28;20223;-60
2022/03/08 08:03:59;;;;;;;7.77;5.47;;;;;;;3.51;76.19;97179.56;10490101;28;20191;-61
2022/03/08 08:09:00;;;;;;;8.80;5.97;;;;;;;4.37;72.90;97158.19;10493267;28;20226;-60
2022/03/08 08:14:00;;;;;;;10.57;6.17;;;;;;;5.22;71.64;97153.94;10492534;28;20195;-59
2022/03/08 08:19:01;;;;;;;10.13;6.13;;;;;;;5.30;68.90;97117.84;10492954;28;20262;-61
2022/03/08 08:24:01;;;;;;;11.47;6.30;;;;;;;5.63;65.31;97065.09;10493401;28;20191;-62
2022/03/08 08:29:02;;;;;;;9.80;6.00;;;;;;;5.84;64.83;97074.81;10492818;28;20233;-59
2022/03/08 08:34:02;;;;;;;9.83;5.80;;;;;;;5.50;66.22;97109.38;10492963;28;20200;-62
2022/03/08 08:39:03;;;;;;;17.33;7.90;;;;;;;5.11;65.56;97087.19;10492667;28;20791;-61
2022/03/08 08:44:03;;;;;;;11.57;5.90;;;;;;;5.58;65.19;97105.38;10491689;28;20666;-62
2022/03/08 08:49:05;;;;;;;7.07;5.40;;;;;;;6.22;66.13;97138.69;10492584;28;20601;-63
2022/03/08 08:54:05;;;;;;;8.97;5.60;;;;;;;6.88;63.14;97102.22;10491814;28;20202;-63
2022/03/08 08:59:06;;;;;;;11.03;5.77;;;;;;;7.20;63.37;97118.78;10492556;28;20241;-63
2022/03/08 09:04:06;;;;;;;9.27;5.70;;;;;;;6.40;64.61;97139.00;10492247;28;20249;-62
2022/03/08 09:09:07;;;;;;;8.77;4.40;;;;;;;6.37;64.30;97131.44;10492241;28;20272;-63
2022/03/08 09:14:09;;;;;;;8.93;5.03;;;;;;;7.84;61.93;97095.22;10491585;28;20652;-63
2022/03/08 09:19:10;;;;;;;6.43;4.53;;;;;;;8.91;58.00;97044.22;10490778;28;20724;-63
2022/03/08 09:24:10;;;;;;;10.93;5.37;;;;;;;8.49;58.10;97042.69;10491969;28;20560;-63
2022/03/08 09:29:10;;;;;;;9.27;5.53;;;;;;;7.77;58.13;97034.09;10491512;28;20226;-61
2022/03/08 09:34:11;;;;;;;7.53;4.70;;;;;;;8.46;55.33;96977.69;10491848;28;20187;-64
2022/03/08 09:39:12;;;;;;;7.97;5.83;;;;;;;9.19;54.35;96986.84;10491456;28;20645;-63
2022/03/08 09:44:14;;;;;;;11.47;3.60;;;;;;;8.70;55.84;97016.47;10490957;28;20195;-63
2022/03/08 09:49:14;;;;;;;5.97;3.97;;;;;;;8.46;57.08;97050.78;10496791;28;20653;-63
2022/03/08 09:54:14;;;;;;;5.00;3.00;;;;;;;8.11;55.91;97020.72;10498778;28;20226;-63
2022/03/08 09:59:16;;;;;;;5.10;3.10;;;;;;;7.72;57.80;97062.34;10499237;28;20231;-63
2022/03/08 10:04:17;;;;;;;4.27;2.67;;;;;;;7.39;58.54;97066.81;10499232;28;20684;-63
2022/03/08 10:09:20;;;;;;;4.17;2.40;;;;;;;9.81;52.78;96995.84;10498349;28;20288;-63
2022/03/08 10:14:27;;;;;;;4.87;2.80;;;;;;;10.10;49.34;96911.13;10497847;28;20191;-63
2022/03/08 10:19:28;;;;;;;4.27;3.10;;;;;;;8.98;54.59;97019.22;10496789;28;20611;-63
2022/03/08 10:24:32;;;;;;;6.88;3.60;;;;;;;10.22;52.30;96989.47;10498544;28;20198;-63
2022/03/08 10:29:36;;;;;;;9.75;3.75;;;;;;;10.94;50.94;96990.31;10498510;28;20223;-62
2022/03/08 10:34:37;;;;;;;7.35;4.40;;;;;;;11.27;50.89;96985.34;10497572;28;20569;-62
2022/03/08 10:39:58;;;;;;;3.53;2.92;;;;;;;9.22;51.43;96923.84;10497774;28;20211;-64
2022/03/08 10:45:15;;;;;;;4.80;2.75;;;;;;;10.47;49.93;96946.84;10479513;28;20677;-64
2022/03/08 10:50:17;;;;;;;3.35;2.35;;;;;;;10.07;47.93;96884.44;10497213;28;20213;-64
2022/03/08 10:55:19;;;;;;;3.92;2.10;;;;;;;10.31;47.32;96883.84;10495603;28;20184;-64
2022/03/08 11:00:23;;;;;;;3.05;1.90;;;;;;;10.70;45.89;96841.59;10497623;28;20207;-64
2022/03/08 11:05:25;;;;;;;4.50;1.92;;;;;;;12.32;43.79;96843.28;10497239;28;20653;-64
2022/03/08 11:10:27;;;;;;;2.65;2.10;;;;;;;12.03;42.40;96786.00;10495579;28;20629;-63
2022/03/08 11:15:31;;;;;;;2.90;1.80;;;;;;;12.60;41.43;96800.91;10490632;28;20187;-63
2022/03/08 11:20:31;;;;;;;1.75;1.45;;;;;;;13.24;39.72;96771.13;10491073;28;20316;-62
2022/03/08 11:25:40;;;;;;;3.63;2.10;;;;;;;12.31;41.65;96781.22;10494774;28;20269;-63
2022/03/08 11:30:45;;;;;;;4.32;3.10;;;;;;;12.28;41.99;96798.16;10495524;28;20210;-62
2022/03/08 11:35:57;;;;;;;6.32;2.20;;;;;;;12.11;42.84;96834.13;10495557;28;20598;-64
2022/03/08 11:40:58;;;;;;;3.63;2.00;;;;;;;11.41;40.98;96767.03;10477000;28;20777;-63
2022/03/08 11:46:12;;;;;;;4.07;2.35;;;;;;;11.15;40.04;96742.69;10494254;28;20223;-62
2022/03/08 11:51:12;;;;;;;4.68;2.25;;;;;;;10.81;43.24;96822.16;10492944;28;20212;-63
2022/03/08 11:56:17;;;;;;;4.32;2.38;;;;;;;10.58;41.59;96786.03;10493422;28;20733;-63
2022/03/08 12:01:23;;;;;;;3.13;2.47;;;;;;;11.85;40.68;96807.13;10494004;28;20215;-63
2022/03/08 12:06:31;;;;;;;4.65;2.63;;;;;;;12.12;41.21;96838.34;10493884;28;20697;-63
2022/03/08 12:11:34;;;;;;;5.85;2.50;;;;;;;12.30;40.12;96803.25;10493240;28;20573;-63
2022/03/08 12:16:35;;;;;;;5.85;2.75;;;;;;;11.70;41.25;96826.13;10493675;28;20688;-64
2022/03/08 12:21:38;;;;;;;3.83;2.38;;;;;;;13.81;37.74;96765.53;10493455;28;20262;-64
2022/03/08 12:26:41;;;;;;;5.10;2.80;;;;;;;13.95;37.47;96752.63;10493098;28;20229;-65
2022/03/08 12:32:05;;;;;;;4.05;2.25;;;;;;;15.47;35.47;96728.59;10490975;28;20279;-64
2022/03/08 12:37:14;;;;;;;3.42;2.38;;;;;;;13.14;38.15;96722.19;10489147;28;20195;-64
2022/03/08 12:42:27;;;;;;;5.68;2.90;;;;;;;13.88;38.78;96763.84;10490423;28;20289;-64
2022/03/08 12:47:30;;;;;;;5.07;2.30;;;;;;;14.74;36.61;96715.31;10489096;28;20223;-65
2022/03/08 12:52:34;;;;;;;2.88;1.90;;;;;;;16.23;32.99;96649.59;10492975;28;20195;-64
2022/03/08 12:57:44;;;;;;;5.38;2.38;;;;;;;15.20;33.30;96614.00;10492371;28;20703;-65
2022/03/08 13:02:44;;;;;;;14.00;2.35;;;;;;;15.25;35.47;96670.50;10491705;28;20183;-64
2022/03/08 13:07:52;;;;;;;8.23;3.72;;;;;;;15.68;34.34;96649.38;10492743;28;20227;-64
2022/03/08 13:13:03;;;;;;;4.88;2.13;;;;;;;16.83;31.68;96582.13;10492483;28;20742;-64
2022/03/08 13:18:04;;;;;;;4.03;2.40;;;;;;;15.82;33.73;96625.75;10492469;28;20610;-65
2022/03/08 13:23:09;;;;;;;3.03;1.95;;;;;;;16.44;33.37;96628.56;10497145;28;20197;-65
2022/03/08 13:28:12;;;;;;;3.22;2.28;;;;;;;14.14;34.72;96604.59;10500881;28;20223;-64
2022/03/08 13:33:22;;;;;;;4.88;2.10;;;;;;;14.12;35.95;96656.66;10499169;28;20681;-65
2022/03/08 13:38:28;;;;;;;3.67;2.50;;;;;;;15.11;33.66;96605.38;10500259;28;20713;-65
2022/03/08 13:43:29;;;;;;;3.90;2.15;;;;;;;14.59;32.87;96571.13;10499679;28;20197;-64
2022/03/08 13:48:32;;;;;;;2.35;1.83;;;;;;;14.81;32.68;96560.66;10499871;28;20241;-64
2022/03/08 13:53:33;;;;;;;3.28;2.63;;;;;;;16.04;31.17;96548.03;10499934;28;20226;-64
2022/03/08 13:58:41;;;;;;;8.55;2.70;;;;;;;16.32;31.52;96586.00;10498858;28;20239;-62
2022/03/08 14:03:44;;;;;;;2.25;1.60;;;;;;;14.77;33.44;96593.66;10498503;28;20195;-64
2022/03/08 14:08:48;;;;;;;3.42;1.77;;;;;;;14.08;33.88;96589.53;10498743;28;20223;-63
2022/03/08 14:13:52;;;;;;;3.50;1.60;;;;;;;14.65;32.57;96574.84;10498924;28;20183;-64
2022/03/08 14:18:55;;;;;;;3.33;1.92;;;;;;;15.33;30.64;96517.28;10498473;28;20238;-64
2022/03/08 14:23:56;;;;;;;8.55;4.63;;;;;;;15.09;30.18;96501.84;10498523;28;20191;-65
2022/03/08 14:29:01;;;;;;;1.77;1.60;;;;;;;13.73;33.02;96540.00;10498443;28;20215;-65
2022/03/08 14:34:10;;;;;;;3.67;1.80;;;;;;;14.67;31.21;96525.41;10497699;28;20215;-65
2022/03/08 14:39:39;;;;;;;3.50;3.03;;;;;;;15.54;31.15;96568.38;10496813;28;20203;-63
2022/03/08 14:44:45;;;;;;;4.40;1.63;;;;;;;16.65;29.73;96554.41;10497903;28;20184;-63
2022/03/08 14:49:46;;;;;;;2.63;1.80;;;;;;;14.95;31.35;96530.75;10497701;28;20211;-63
2022/03/08 14:54:48;;;;;;;1.75;1.52;;;;;;;13.50;33.66;96568.22;10497115;28;20660;-62
2022/03/08 14:59:48;;;;;;;5.60;3.28;;;;;;;15.34;30.96;96550.59;10496585;28;20219;-63
2022/03/08 15:04:49;;;;;;;2.35;1.45;;;;;;;17.33;28.73;96544.78;10496366;28;20191;-63
2022/03/08 15:09:49;;;;;;;2.72;1.45;;;;;;;17.24;28.92;96541.50;10497037;28;20215;-62
2022/03/08 15:14:50;;;;;;;3.00;1.52;;;;;;;16.45;30.31;96570.19;10496719;28;20191;-62
2022/03/08 15:19:51;;;;;;;1.73;1.40;;;;;;;17.28;27.90;96506.47;10493660;28;20231;-62
2022/03/08 15:24:51;;;;;;;1.75;1.30;;;;;;;15.51;29.59;96481.66;10493315;28;20268;-56
2022/03/08 15:29:52;;;;;;;1.85;1.33;;;;;;;18.46;26.03;96475.59;10495028;28;20211;-61
2022/03/08 15:34:52;;;;;;;2.95;1.30;;;;;;;20.43;24.61;96489.44;10495478;28;20194;-64
2022/03/08 15:39:52;;;;;;;2.38;2.08;;;;;;;19.86;24.89;96483.56;10493352;28;20203;-62
2022/03/08 15:44:53;;;;;;;1.90;1.40;;;;;;;19.81;25.01;96484.22;10494383;28;20329;-63
2022/03/08 15:49:54;;;;;;;3.35;1.50;;;;;;;17.62;27.93;96539.03;10494328;28;20312;-64
2022/03/08 15:54:54;;;;;;;2.70;1.90;;;;;;;16.14;29.16;96534.47;10494404;28;20183;-64
2022/03/08 15:59:55;;;;;;;23.73;13.07;;;;;;;13.28;32.10;96538.28;10494211;28;20221;-64
2022/03/08 16:04:55;;;;;;;13.13;7.88;;;;;;;11.19;35.42;96589.31;10493718;28;20226;-64
2022/03/08 16:09:56;;;;;;;2.33;1.52;;;;;;;10.95;36.81;96650.38;10493589;28;20941;-64
2022/03/08 16:14:56;;;;;;;2.55;1.67;;;;;;;9.45;38.69;96660.22;10492863;28;20562;-64
2022/03/08 16:19:57;;;;;;;3.43;2.03;;;;;;;8.29;40.74;96697.28;10492807;28;21053;-64
2022/03/08 16:24:57;;;;;;;2.67;1.70;;;;;;;7.23;42.53;96741.56;10492997;28;20577;-64
2022/03/08 16:29:57;;;;;;;3.17;1.97;;;;;;;6.24;45.51;96814.19;10492671;28;20648;-64
2022/03/08 16:34:58;;;;;;;4.30;1.73;;;;;;;5.90;47.56;96863.72;10492753;28;20673;-64
2022/03/08 16:39:58;;;;;;;3.37;1.80;;;;;;;5.57;48.55;96904.44;10491881;28;20718;-64
2022/03/08 16:44:59;;;;;;;3.53;1.90;;;;;;;5.27;50.35;96951.84;10491480;28;20222;-63
2022/03/08 16:49:59;;;;;;;6.27;2.03;;;;;;;5.06;51.90;96990.63;10491748;28;20215;-64
2022/03/08 16:54:59;;;;;;;1.80;1.50;;;;;;;4.71;52.39;97004.47;10492041;28;20183;-64
2022/03/08 17:00:00;;;;;;;7.00;4.13;;;;;;;3.98;55.63;97077.06;10492018;28;20286;-64
2022/03/08 17:05:00;;;;;;;7.60;6.03;;;;;;;2.66;59.20;97128.03;10491159;28;20237;-63
2022/03/08 17:10:01;;;;;;;13.00;7.67;;;;;;;2.10;61.33;97167.63;10488722;28;20215;-62
2022/03/08 17:15:02;;;;;;;17.30;7.80;;;;;;;1.69;63.10;97186.41;10491214;28;20610;-62
2022/03/08 17:20:06;;;;;;;15.40;9.03;;;;;;;1.12;66.01;97237.84;10490957;28;20259;-61
2022/03/08 17:25:07;;;;;;;21.77;10.30;;;;;;;0.57;67.04;97239.94;10491850;28;20211;-63
2022/03/08 17:30:08;;;;;;;21.13;12.97;;;;;;;0.71;66.21;97214.25;10492635;28;20271;-61
2022/03/08 17:35:08;;;;;;;11.77;6.17;;;;;;;0.46;68.22;97255.97;10491832;28;20306;-63
2022/03/08 17:40:10;;;;;;;11.73;5.77;;;;;;;-0.16;71.41;97304.63;10491428;28;20294;-61
2022/03/08 17:45:10;;;;;;;9.17;5.17;;;;;;;-0.25;72.83;97310.22;10491032;28;20224;-63
2022/03/08 17:50:10;;;;;;;9.50;4.00;;;;;;;-0.36;72.66;97298.69;10490198;28;20735;-63
2022/03/08 17:55:11;;;;;;;15.53;5.27;;;;;;;-0.27;72.65;97294.84;10491536;28;20262;-63
2022/03/08 18:00:12;;;;;;;13.17;5.23;;;;;;;-0.64;74.93;97322.34;10491778;28;20589;-63
2022/03/08 18:05:13;;;;;;;7.87;4.10;;;;;;;-0.92;75.86;97322.78;10492445;28;20596;-62
2022/03/08 18:10:13;;;;;;;13.53;6.37;;;;;;;-0.81;76.00;97320.56;10498247;28;20217;-62
2022/03/08 18:15:14;;;;;;;9.30;5.13;;;;;;;-0.74;75.32;97303.91;10499606;28;20183;-62
2022/03/08 18:20:15;;;;;;;13.07;7.67;;;;;;;-1.15;77.96;97334.09;10499210;28;20233;-62
2022/03/08 18:25:15;;;;;;;6.70;4.40;;;;;;;-1.41;79.17;97337.81;10498899;28;20313;-62
2022/03/08 18:30:15;;;;;;;6.83;3.37;;;;;;;-1.20;77.49;97305.22;10497286;28;20653;-62
2022/03/08 18:35:16;;;;;;;11.83;4.30;;;;;;;-1.25;77.45;97305.41;10498651;28;20269;-62
2022/03/08 18:40:16;;;;;;;12.20;4.40;;;;;;;-1.67;81.47;97345.78;10498358;28;20214;-61
2022/03/08 18:45:17;;;;;;;8.10;4.20;;;;;;;-1.73;81.63;97337.47;10498205;28;20216;-60
2022/03/08 18:50:17;;;;;;;6.10;3.07;;;;;;;-1.66;81.41;97318.34;10497872;28;20211;-60
2022/03/08 18:55:18;;;;;;;9.10;3.87;;;;;;;-1.71;82.22;97315.13;10497950;28;20223;-61
2022/03/08 19:00:19;;;;;;;8.67;4.20;;;;;;;-1.94;84.22;97327.22;10497370;28;20256;-61
2022/03/08 19:05:19;;;;;;;6.73;3.80;;;;;;;-2.00;85.55;97319.75;10497746;28;20222;-61
2022/03/08 19:10:20;;;;;;;5.57;3.40;;;;;;;-1.76;84.65;97297.38;10497003;28;20393;-61
2022/03/08 19:15:21;;;;;;;6.97;3.23;;;;;;;-1.78;83.66;97285.47;10496887;28;20195;-61
2022/03/08 19:20:21;;;;;;;8.30;4.87;;;;;;;-1.99;84.60;97304.31;10496346;28;20231;-60
2022/03/08 19:25:21;;;;;;;8.47;4.20;;;;;;;-1.95;84.89;97301.59;10496199;28;20838;-61
2022/03/08 19:30:22;;;;;;;3.80;2.90;;;;;;;-1.84;84.92;97291.69;10496892;28;20264;-61
2022/03/08 19:35:23;;;;;;;5.23;3.37;;;;;;;-1.90;84.99;97297.09;10496773;28;20184;-59
2022/03/08 19:40:23;;;;;;;7.10;3.27;;;;;;;-1.91;85.37;97303.16;10495291;28;20211;-61
2022/03/08 19:45:23;;;;;;;4.37;3.20;;;;;;;-1.94;86.39;97298.16;10495444;28;20567;-60
2022/03/08 19:50:25;;;;;;;7.40;3.97;;;;;;;-2.05;87.00;97296.00;10495121;28;20215;-59
2022/03/08 19:55:25;;;;;;;8.63;4.00;;;;;;;-2.03;87.83;97299.34;10495244;28;20571;-60
2022/03/08 20:00:26;;;;;;;12.73;4.60;;;;;;;-2.18;88.47;97288.00;10494924;28;20221;-60
2022/03/08 20:05:26;;;;;;;12.20;4.60;;;;;;;-2.23;88.88;97295.06;10494940;28;20213;-61
2022/03/08 20:10:26;;;;;;;2.87;2.53;;;;;;;-2.23;89.97;97306.16;10495118;28;20207;-57
2022/03/08 20:15:27;;;;;;;13.33;4.93;;;;;;;-2.26;90.36;97306.28;10494507;28;20191;-58
2022/03/08 20:20:28;;;;;;;8.23;4.67;;;;;;;-2.48;92.33;97305.47;10494146;28;20234;-61
2022/03/08 20:25:29;;;;;;;10.70;5.10;;;;;;;-2.61;94.22;97317.94;10494138;28;20219;-61
2022/03/08 20:30:30;;;;;;;8.17;4.03;;;;;;;-2.47;94.38;97309.69;10493997;28;20250;-61
2022/03/08 20:35:31;;;;;;;8.93;4.70;;;;;;;-2.48;94.23;97305.47;10494350;28;20274;-60
2022/03/08 20:40:31;;;;;;;8.20;4.03;;;;;;;-2.52;94.34;97305.56;10493074;28;20221;-61
2022/03/08 20:45:33;;;;;;;8.80;3.97;;;;;;;-2.40;93.92;97321.41;10493774;28;20742;-59
2022/03/08 20:50:34;;;;;;;6.77;3.87;;;;;;;-2.28;91.93;97305.50;10493451;28;20571;-60
2022/03/08 20:55:34;;;;;;;11.57;4.90;;;;;;;-2.50;93.95;97315.78;10493691;28;20179;-61
2022/03/08 21:00:35;;;;;;;5.97;4.03;;;;;;;-2.54;95.11;97315.06;10493411;28;20206;-60
2022/03/08 21:05:36;;;;;;;10.00;3.87;;;;;;;-2.48;94.46;97320.84;10493135;28;20717;-60
2022/03/08 21:10:36;;;;;;;6.57;3.60;;;;;;;-2.53;94.82;97328.72;10493444;28;20218;-61
2022/03/08 21:15:37;;;;;;;6.77;3.17;;;;;;;-2.51;94.55;97327.78;10493382;28;20255;-60
2022/03/08 21:20:37;;;;;;;6.80;4.13;;;;;;;-2.54;94.23;97321.94;10493160;28;20218;-58
2022/03/08 21:25:38;;;;;;;8.23;3.53;;;;;;;-2.60;95.02;97327.31;10493772;28;20789;-60
2022/03/08 21:30:38;;;;;;;8.63;4.20;;;;;;;-2.58;95.12;97328.09;10492878;28;20222;-60
2022/03/08 21:35:39;;;;;;;6.33;3.33;;;;;;;-2.66;94.98;97330.09;10475367;28;20206;-58
2022/03/08 21:40:39;;;;;;;7.67;3.63;;;;;;;-2.58;94.69;97323.78;10492218;28;20206;-60
2022/03/08 21:45:39;;;;;;;34.80;3.60;;;;;;;-2.58;94.18;97322.97;10499999;28;20215;-60
2022/03/08 21:50:40;;;;;;;6.13;2.93;;;;;;;-2.67;94.82;97319.00;10498642;28;20207;-60
2022/03/08 21:55:41;;;;;;;6.17;3.43;;;;;;;-2.69;95.20;97315.69;10499669;28;20183;-60
2022/03/08 22:00:41;;;;;;;15.73;3.40;;;;;;;-2.72;95.80;97315.81;10499154;28;20215;-58
2022/03/08 22:05:42;;;;;;;8.27;3.80;;;;;;;-2.76;96.49;97307.38;10498603;28;20214;-60
2022/03/08 22:10:43;;;;;;;6.20;3.23;;;;;;;-2.80;96.97;97321.22;10500936;28;20211;-61
2022/03/08 22:15:44;;;;;;;5.37;3.30;;;;;;;-2.87;97.70;97312.09;10500596;28;20214;-60
2022/03/08 22:20:44;;;;;;;5.00;3.30;;;;;;;-2.92;97.99;97301.19;10499956;28;20233;-59
2022/03/08 22:25:45;;;;;;;5.97;3.13;;;;;;;-2.92;98.08;97303.75;10500150;28;20317;-60
2022/03/08 22:30:45;;;;;;;5.10;3.17;;;;;;;-2.91;98.61;97307.97;10499579;28;20215;-60
2022/03/08 22:35:45;;;;;;;8.87;3.40;;;;;;;-2.85;97.23;97300.03;10500061;28;20214;-60
2022/03/08 22:40:46;;;;;;;6.77;3.07;;;;;;;-2.84;97.61;97311.97;10498776;28;20214;-60
2022/03/08 22:45:46;;;;;;;8.23;3.40;;;;;;;-2.91;97.66;97313.94;10499311;28;20225;-58
2022/03/08 22:56:05;;;;;;;4.33;2.97;;;;;;;-3.01;99.92;97327.16;10498552;28;20238;-61
2022/03/08 23:01:06;;;;;;;8.77;3.70;;;;;;;-2.91;98.55;97324.19;10498729;28;20708;-60
2022/03/08 23:06:06;;;;;;;4.50;1.93;;;;;;;-3.00;98.74;97333.94;10498166;28;20288;-58
2022/03/08 23:11:06;;;;;;;5.10;2.90;;;;;;;-2.94;98.70;97333.72;10497944;28;20208;-60
2022/03/08 23:16:07;;;;;;;5.37;2.43;;;;;;;-2.98;99.09;97337.31;10497713;28;20229;-59
2022/03/08 23:21:07;;;;;;;3.73;2.60;;;;;;;-3.06;100.00;97348.66;10496977;28;20235;-60